ADDS METAR Data INFO
IDs: Format: Raw Decoded Include TAF

Data at: 2112 UTC 22 Oct 2017

KCGE 222105Z AUTO 18005KT 10SM CLR 23/13 A3032 RMK A01
KCGE 222045Z AUTO 17004KT 10SM CLR 24/12 A3032 RMK A01
KCGE 222025Z AUTO 16004KT 10SM CLR 24/11 A3032 RMK A01
KCGE 222005Z AUTO 13006KT 10SM CLR 24/10 A3032 RMK A01
KCGE 221945Z AUTO VRB04KT 10SM CLR 24/10 A3033 RMK A01
KCGE 221925Z AUTO 11004KT 10SM CLR 24/10 A3034 RMK A01
KCGE 221905Z AUTO 15005KT 10SM CLR 24/09 A3034 RMK A01
KCGE 221845Z AUTO 17006G11KT 10SM CLR 24/10 A3034 RMK A01
KCGE 221825Z AUTO VRB06KT 10SM CLR 24/11 A3034 RMK A01
KCGE 221805Z AUTO 12008KT 10SM CLR 24/11 A3034 RMK A01
KCGE 221745Z AUTO 14008KT 100V190 10SM CLR 24/10 A3035 RMK A01
KCGE 221725Z AUTO 12008KT 10SM CLR 23/09 A3036 RMK A01
KCGE 221705Z AUTO 13009KT 120V200 10SM CLR 23/09 A3037 RMK A01
KCGE 221645Z AUTO 17006G12KT 10SM CLR 23/10 A3038 RMK A01
KCGE 221625Z AUTO 18006KT 10SM CLR 23/12 A3038 RMK A01
KCGE 221605Z AUTO 18006KT 10SM CLR 23/13 A3039 RMK A01
KCGE 221545Z AUTO 15005KT 10SM CLR 22/14 A3040 RMK A01
KCGE 221525Z AUTO VRB05KT 10SM CLR 22/14 A3040 RMK A01
KCGE 221505Z AUTO VRB03KT 10SM FEW016 21/16 A3040 RMK A01
KCGE 221445Z AUTO 13005KT 10SM CLR 20/17 A3040 RMK A01
KCGE 221425Z AUTO 15004KT 10SM CLR 19/17 A3041 RMK A01
KCGE 221405Z AUTO 13003KT 9SM SCT002 17/17 A3041 RMK A01
KCGE 221345Z AUTO 00000KT 1/4SM FG OVC002 15/15 A3041 RMK A01
KCGE 221325Z AUTO 00000KT M1/4SM FG OVC002 14/14 A3041 RMK A01
KCGE 221245Z AUTO 00000KT 1 1/2SM BR OVC002 11/11 A3041 RMK A01
KCGE 221225Z AUTO 00000KT 10SM BKN002 10/09 A3040 RMK A01
KCGE 221205Z AUTO 00000KT 10SM CLR 09/08 A3040 RMK A01
KCGE 221145Z AUTO 00000KT 9SM CLR 08/08 A3040 RMK A01
KCGE 221125Z AUTO 00000KT 10SM CLR 08/08 A3039 RMK A01
KCGE 221105Z AUTO 00000KT 10SM CLR 08/07 A3038 RMK A01
KCGE 221045Z AUTO 00000KT 10SM CLR 08/08 A3038 RMK A01
KCGE 221025Z AUTO 00000KT 8SM CLR 08/08 A3038 RMK A01
KCGE 221005Z AUTO 00000KT 6SM BR CLR 08/08 A3037 RMK A01
KCGE 220945Z AUTO 00000KT 3SM BR CLR 09/08 A3037 RMK A01
KCGE 220925Z AUTO 00000KT 10SM CLR 08/08 A3037 RMK A01
KCGE 220905Z AUTO 00000KT 9SM CLR 09/08 A3036 RMK A01
KCGE 220845Z AUTO 00000KT 10SM CLR 09/09 A3035 RMK A01
KCGE 220825Z AUTO 00000KT 10SM CLR 09/09 A3034 RMK A01
KCGE 220805Z AUTO 00000KT 9SM CLR 09/09 A3034 RMK A01
KCGE 220745Z AUTO 00000KT 7SM CLR 09/09 A3034 RMK A01
KCGE 220725Z AUTO 00000KT 10SM CLR 09/09 A3034 RMK A01
KCGE 220705Z AUTO 00000KT 8SM CLR 09/09 A3035 RMK A01
KCGE 220645Z AUTO 00000KT 8SM CLR 09/09 A3035 RMK A01
KCGE 220625Z AUTO 00000KT 10SM CLR 10/09 A3035 RMK A01
KCGE 220605Z AUTO 00000KT 9SM CLR 10/10 A3035 RMK A01
KCGE 220545Z AUTO 00000KT 10SM CLR 11/10 A3035 RMK A01
KCGE 220525Z AUTO 00000KT 10SM CLR 10/10 A3035 RMK A01
KCGE 220505Z AUTO 00000KT 10SM CLR 11/10 A3036 RMK A01
KCGE 220445Z AUTO 00000KT 10SM CLR 11/10 A3035 RMK A01
KCGE 220425Z AUTO 00000KT 10SM CLR 11/10 A3036 RMK A01
KCGE 220405Z AUTO 00000KT 10SM CLR 11/10 A3036 RMK A01
KCGE 220345Z AUTO 00000KT 10SM CLR 11/10 A3036 RMK A01
KCGE 220325Z AUTO 00000KT 10SM CLR 12/10 A3037 RMK A01
KCGE 220305Z AUTO 00000KT 10SM CLR 12/10 A3037 RMK A01
KCGE 220245Z AUTO 00000KT 10SM CLR 12/10 A3037 RMK A01
KCGE 220225Z AUTO 00000KT 10SM CLR 13/10 A3037 RMK A01
KCGE 220205Z AUTO 00000KT 10SM CLR 12/10 A3037 RMK A01
KCGE 220145Z AUTO 00000KT 10SM CLR 13/10 A3037 RMK A01
KCGE 220125Z AUTO 00000KT 10SM CLR 13/10 A3037 RMK A01
KCGE 220105Z AUTO 00000KT 10SM CLR 13/10 A3037 RMK A01
KCGE 220045Z AUTO 00000KT 10SM CLR 13/10 A3037 RMK A01
KCGE 220025Z AUTO 00000KT 10SM CLR 14/10 A3036 RMK A01
KCGE 220005Z AUTO 00000KT 10SM CLR 14/10 A3036 RMK A01
KCGE 212325Z AUTO 00000KT 10SM CLR 14/10 A3036 RMK A01
KCGE 212305Z AUTO 00000KT 10SM CLR 15/10 A3035 RMK A01
KCGE 212245Z AUTO 00000KT 10SM CLR 16/10 A3034 RMK A01
KCGE 212225Z AUTO 00000KT 10SM CLR 17/10 A3034 RMK A01
KCGE 212205Z AUTO 25003KT 10SM CLR 18/08 A3034 RMK A01
KCGE 212145Z AUTO 28003KT 10SM CLR 20/08 A3033 RMK A01
KCGE 212125Z AUTO 26005KT 10SM CLR 22/07 A3033 RMK A01
KCGE 212105Z AUTO 26005KT 10SM CLR 23/09 A3032 RMK A01
KCGE 212045Z AUTO 21004KT 10SM CLR 24/07 A3032 RMK A01
KCGE 212025Z AUTO 16004KT 10SM CLR 24/06 A3031 RMK A01
KCGE 212005Z AUTO 11005KT 10SM CLR 24/05 A3031 RMK A01
KCGE 211945Z AUTO 12006KT 10SM CLR 24/05 A3031 RMK A01
KCGE 211925Z AUTO 14005KT 10SM CLR 25/06 A3031 RMK A01
KCGE 211845Z AUTO 12005KT 10SM CLR 24/06 A3031 RMK A01
KCGE 211825Z AUTO 00000KT 10SM CLR 24/06 A3032 RMK A01
KCGE 211805Z AUTO 14005KT 10SM CLR 24/06 A3032 RMK A01
KCGE 211745Z AUTO 00000KT 10SM CLR 24/05 A3032 RMK A01
KCGE 211725Z AUTO 15003KT 10SM CLR 24/05 A3033 RMK A01
KCGE 211705Z AUTO 00000KT 10SM CLR 23/05 A3034 RMK A01
KCGE 211645Z AUTO 00000KT 10SM CLR 23/05 A3035 RMK A01
KCGE 211625Z AUTO 00000KT 10SM CLR 23/07 A3035 RMK A01
KCGE 211605Z AUTO 00000KT 10SM CLR 22/07 A3036 RMK A01
KCGE 211545Z AUTO 00000KT 10SM CLR 21/07 A3036 RMK A01
KCGE 211525Z AUTO 00000KT 10SM CLR 21/07 A3036 RMK A01
KCGE 211505Z AUTO 00000KT 10SM CLR 20/10 A3037 RMK A01
KCGE 211445Z AUTO 00000KT 10SM CLR 20/10 A3037 RMK A01
KCGE 211425Z AUTO 00000KT 10SM CLR 19/11 A3037 RMK A01
KCGE 211345Z AUTO 00000KT 10SM CLR 17/12 A3036 RMK A01
KCGE 211325Z AUTO 00000KT 10SM CLR 15/15 A3036 RMK A01
KCGE 211305Z AUTO 00000KT 6SM BR CLR 12/12 A3035 RMK A01
KCGE 211245Z AUTO 00000KT 1SM BR SCT002 10/10 A3035 RMK A01
KCGE 211225Z AUTO 00000KT M1/4SM FG OVC001 09/09 A3034 RMK A01
KCGE 211205Z AUTO 00000KT M1/4SM FG OVC001 08/08 A3033 RMK A01
KCGE 211145Z AUTO 00000KT M1/4SM FG OVC001 08/08 A3032 RMK A01
KCGE 211125Z AUTO 00000KT 1/4SM FG OVC001 08/07 A3030 RMK A01
KCGE 211105Z AUTO 00000KT M1/4SM FG OVC001 07/07 A3030 RMK A01
KCGE 211045Z AUTO 00000KT M1/4SM FG OVC002 07/07 A3029 RMK A01
KCGE 211025Z AUTO 00000KT 9SM SCT002 07/07 A3029 RMK A01
KCGE 211005Z AUTO 00000KT 8SM FEW002 08/07 A3028 RMK A01
KCGE 210945Z AUTO 00000KT 7SM CLR 08/07 A3028 RMK A01
KCGE 210925Z AUTO 00000KT 9SM CLR 08/08 A3027 RMK A01